Terminal Aerodrome Forecast
Issued by NWS

Home | Current Version | Previous Version | Text Only | Print | Product List | Glossary On
Versions: 1 2 3 4 5 6 7 8 9 10 11 12 13 14 15 16 17 18 19 20 21 22 23
267
FTUS43 KLSX 170436 AAB
TAFCPS
TAF AMD
KCPS 170436Z 1705/1724 19011KT 2SM SHRA BR BKN005
     FM170600 26012G22KT 4SM BR OVC015
     FM170800 26007KT 6SM BR OVC010
     FM172100 27009KT P6SM OVC015=

USA.gov is the U.S. government's official web portal to all federal, state and local government web resources and services.